createdAt,value
2022-12-08T00:00:02.312Z,9.22
2022-12-08T00:15:02.422Z,9.61
2022-12-08T00:30:01.457Z,9.44
2022-12-08T00:45:02.146Z,9.35
2022-12-08T01:00:02.335Z,9.13
2022-12-08T01:15:02.973Z,8.76
2022-12-08T01:30:02.461Z,8.37
2022-12-08T01:45:01.490Z,8.17
2022-12-08T02:00:02.643Z,8.2
2022-12-08T02:15:04.977Z,8.22
2022-12-08T02:30:02.715Z,8.34
2022-12-08T02:45:01.642Z,8.49
2022-12-08T03:00:01.435Z,8.41
2022-12-08T03:15:01.385Z,8.49
2022-12-08T03:30:02.500Z,8.63
2022-12-08T03:45:01.567Z,8.74
2022-12-08T04:00:02.705Z,8.94
2022-12-08T04:15:01.699Z,8.98
2022-12-08T04:30:01.717Z,9.11
2022-12-08T04:45:01.805Z,9.33
2022-12-08T05:00:01.935Z,9.27
2022-12-08T05:15:01.962Z,9.35
2022-12-08T05:30:01.995Z,9.66
2022-12-08T05:45:01.848Z,9.38
2022-12-08T06:00:01.679Z,9.48
2022-12-08T06:15:01.521Z,9.67
2022-12-08T06:30:02.645Z,9.66
2022-12-08T06:45:01.717Z,9.45
2022-12-08T07:00:02.998Z,10
2022-12-08T07:15:01.993Z,9.77
2022-12-08T07:30:01.854Z,9.64
2022-12-08T07:45:01.666Z,9.62
2022-12-08T08:00:02.655Z,9.73
2022-12-08T08:15:01.722Z,9.72
2022-12-08T08:30:01.593Z,10.29
2022-12-08T08:45:01.910Z,10.17
2022-12-08T09:00:01.731Z,10.14
2022-12-08T09:15:01.595Z,10.97
2022-12-08T09:30:02.719Z,11.15
2022-12-08T09:45:01.610Z,11
2022-12-08T10:00:02.630Z,11
2022-12-08T10:15:01.581Z,11.48
2022-12-08T10:30:01.477Z,11.56
2022-12-08T10:45:01.322Z,11.83
2022-12-08T11:00:02.255Z,11.97
2022-12-08T11:15:02.094Z,12.09
2022-12-08T11:30:02.140Z,12.21
2022-12-08T11:45:02.231Z,12.48
2022-12-08T12:00:02.230Z,12.07
2022-12-08T12:15:02.104Z,12.05
2022-12-08T12:30:01.764Z,11.64
2022-12-08T12:45:01.518Z,12.13
2022-12-08T13:00:02.363Z,12.01
2022-12-08T13:15:01.995Z,11.66
2022-12-08T13:30:01.797Z,11.56
2022-12-08T13:45:48.512Z,11.37
2022-12-08T14:00:02.034Z,11.29
2022-12-08T14:15:04.228Z,11.05
2022-12-08T14:30:02.354Z,11.02
2022-12-08T14:45:02.009Z,10.09
2022-12-08T15:00:01.742Z,9.9
2022-12-08T15:15:01.419Z,10
2022-12-08T15:30:02.217Z,10.63
2022-12-08T15:45:01.952Z,10.7
2022-12-08T16:00:01.617Z,10.07
2022-12-08T16:15:48.551Z,9.83
2022-12-08T16:30:02.131Z,10.3
2022-12-08T16:45:02.115Z,10.35
2022-12-08T17:00:02.385Z,10.02
2022-12-08T17:15:02.244Z,9.32
2022-12-08T17:30:01.983Z,10.39
2022-12-08T17:45:01.641Z,10.75
2022-12-08T18:00:02.337Z,10.3
2022-12-08T18:15:02.200Z,10.32
2022-12-08T18:30:02.213Z,10.36
2022-12-08T18:45:02.024Z,10.72
2022-12-08T19:00:01.653Z,11.22
2022-12-08T19:15:02.322Z,10.73
2022-12-08T19:30:02.037Z,10.9
2022-12-08T19:45:01.701Z,9.64
2022-12-08T20:00:02.381Z,9.38
2022-12-08T20:15:02.055Z,9.15
2022-12-08T20:30:01.829Z,8.98
2022-12-08T20:45:01.520Z,8.32
2022-12-08T21:00:02.424Z,8
2022-12-08T21:15:02.352Z,9.1
2022-12-08T21:30:02.231Z,9.87
2022-12-08T21:45:02.014Z,10.19
2022-12-08T22:00:01.734Z,10.42
2022-12-08T22:15:01.782Z,10.29
2022-12-08T22:30:02.730Z,9.19
2022-12-08T22:45:02.849Z,8.57
2022-12-08T23:00:02.746Z,8.44
2022-12-08T23:15:02.520Z,8.85
2022-12-08T23:30:02.292Z,9.51
2022-12-08T23:45:01.973Z,10.12
